Time;durP1;ratioP1;P1;durP2;ratioP2;P2;SDS_P1;SDS_P2;PMS_P1;PMS_P2;Temp;Humidity;BMP_temperature;BMP_pressure;BME280_temperature;BME280_humidity;BME280_pressure;Samples;Min_cycle;Max_cycle;Signal;HPM_P1;HPM_P2
2023/12/09 00:01:23;;;;;;;25.23;11.43;;;7.60;85.90;;;;;;5022628;28;20209;-74
2023/12/09 00:03:50;;;;;;;18.10;10.50;;;7.50;85.90;;;;;;5027058;28;20321;-74
2023/12/09 00:06:16;;;;;;;20.17;12.37;;;7.50;86.00;;;;;;5023545;28;20193;-75
2023/12/09 00:08:42;;;;;;;19.23;10.30;;;7.60;86.30;;;;;;5031088;28;20989;-75
2023/12/09 00:11:07;;;;;;;21.93;10.90;;;7.60;86.30;;;;;;5034143;28;20213;-75
2023/12/09 00:13:33;;;;;;;19.10;10.17;;;7.70;86.50;;;;;;5036298;28;20386;-75
2023/12/09 00:15:59;;;;;;;18.77;10.67;;;7.70;86.50;;;;;;5030127;28;20213;-75
2023/12/09 00:18:24;;;;;;;17.80;10.43;;;7.70;86.50;;;;;;5033269;28;20271;-75
2023/12/09 00:20:50;;;;;;;19.80;10.03;;;7.70;86.30;;;;;;5030122;28;20491;-75
2023/12/09 00:23:16;;;;;;;21.50;10.80;;;7.70;86.50;;;;;;5029820;28;20208;-75
2023/12/09 00:25:41;;;;;;;20.57;11.20;;;7.70;86.50;;;;;;5027555;28;20583;-74
2023/12/09 00:28:07;;;;;;;19.10;11.30;;;7.70;86.50;;;;;;5032557;28;20739;-76
2023/12/09 00:30:32;;;;;;;18.13;9.87;;;7.80;86.50;;;;;;5019074;28;20205;-74
2023/12/09 00:32:58;;;;;;;19.00;10.90;;;7.80;86.50;;;;;;5023840;28;20185;-74
2023/12/09 00:35:23;;;;;;;21.73;11.30;;;7.80;86.30;;;;;;5025655;28;20197;-73
2023/12/09 00:37:50;;;;;;;17.73;9.67;;;7.80;86.20;;;;;;5027712;28;21012;-73
2023/12/09 00:40:16;;;;;;;16.90;9.77;;;7.80;86.00;;;;;;5020959;28;20205;-75
2023/12/09 00:42:42;;;;;;;18.73;10.43;;;7.80;86.00;;;;;;5027608;28;20435;-73
2023/12/09 00:45:08;;;;;;;18.07;10.00;;;7.80;86.00;;;;;;5026868;28;20493;-73
2023/12/09 00:47:33;;;;;;;14.70;9.87;;;7.80;85.90;;;;;;5028266;28;20227;-74
2023/12/09 00:49:59;;;;;;;18.10;10.37;;;7.90;85.90;;;;;;5022497;28;20448;-75
2023/12/09 00:52:25;;;;;;;17.17;9.50;;;7.90;85.90;;;;;;5025754;28;20272;-75
2023/12/09 00:54:50;;;;;;;20.50;10.17;;;7.90;85.90;;;;;;5028892;28;20196;-75
2023/12/09 00:57:16;;;;;;;19.20;9.20;;;7.80;85.30;;;;;;5030759;28;20232;-74
2023/12/09 00:59:41;;;;;;;18.90;10.13;;;7.80;85.30;;;;;;5027888;28;20233;-74
2023/12/09 01:02:07;;;;;;;17.80;9.97;;;7.70;85.20;;;;;;5030780;28;20177;-74
2023/12/09 01:04:32;;;;;;;17.57;9.83;;;7.70;85.50;;;;;;5030707;28;20205;-75
2023/12/09 01:06:58;;;;;;;20.47;10.93;;;7.60;85.70;;;;;;5032592;28;20185;-74
2023/12/09 01:09:24;;;;;;;21.67;10.67;;;7.70;85.70;;;;;;5032500;28;20213;-74
2023/12/09 01:11:50;;;;;;;17.33;9.87;;;7.70;85.70;;;;;;5034926;28;20903;-74
2023/12/09 01:14:16;;;;;;;19.70;10.10;;;7.70;85.70;;;;;;5037995;28;20177;-74
2023/12/09 01:16:41;;;;;;;18.13;10.33;;;7.70;85.70;;;;;;5035449;28;20193;-74
2023/12/09 01:19:07;;;;;;;17.80;9.60;;;7.70;85.50;;;;;;5031807;28;20450;-74
2023/12/09 01:21:33;;;;;;;21.50;11.93;;;7.70;84.90;;;;;;5025101;28;20460;-73
2023/12/09 01:23:58;;;;;;;21.53;10.47;;;7.60;84.90;;;;;;5027097;28;20312;-74
2023/12/09 01:26:24;;;;;;;18.57;10.40;;;7.40;85.00;;;;;;5030244;28;20196;-73
2023/12/09 01:28:49;;;;;;;21.43;11.40;;;7.40;85.50;;;;;;5030932;28;20250;-75
2023/12/09 01:31:15;;;;;;;18.67;10.70;;;7.30;85.50;;;;;;5020136;28;20220;-74
2023/12/09 01:33:41;;;;;;;20.23;10.53;;;7.30;85.70;;;;;;5029857;28;20186;-74
2023/12/09 01:36:07;;;;;;;17.30;9.30;;;7.30;86.00;;;;;;5028076;28;20189;-76
2023/12/09 01:38:32;;;;;;;18.33;10.77;;;7.30;86.00;;;;;;5026909;28;20470;-75
2023/12/09 01:40:58;;;;;;;21.80;11.63;;;7.20;86.00;;;;;;5022363;28;20216;-72
2023/12/09 01:43:23;;;;;;;18.53;9.77;;;7.20;86.20;;;;;;5029522;28;20192;-74
2023/12/09 01:45:56;;;;;;;19.87;10.40;;;7.20;86.20;;;;;;5038301;28;20255;-73
2023/12/09 01:48:22;;;;;;;17.10;9.40;;;7.30;86.30;;;;;;5029656;28;20743;-74
2023/12/09 01:50:49;;;;;;;15.80;10.30;;;7.40;86.60;;;;;;5025817;28;20468;-74
2023/12/09 01:53:15;;;;;;;22.63;11.63;;;7.40;86.60;;;;;;5030007;28;20428;-74
2023/12/09 01:55:41;;;;;;;23.87;12.33;;;7.40;86.60;;;;;;5029309;28;20766;-74
2023/12/09 01:58:09;;;;;;;21.00;12.20;;;7.40;86.60;;;;;;5029811;28;20466;-75
2023/12/09 02:00:34;;;;;;;23.27;12.33;;;7.20;86.50;;;;;;5026458;28;20451;-73
2023/12/09 02:03:02;;;;;;;20.10;10.20;;;7.10;86.50;;;;;;5028235;28;20436;-72
2023/12/09 02:05:28;;;;;;;21.37;10.10;;;7.20;86.60;;;;;;5036426;28;20978;-74
2023/12/09 02:07:53;;;;;;;19.60;10.97;;;7.20;86.80;;;;;;5039093;28;20419;-74
2023/12/09 02:10:19;;;;;;;15.37;9.27;;;7.30;86.60;;;;;;5026677;28;20249;-73
2023/12/09 02:13:05;;;;;;;21.93;10.97;;;7.30;85.70;;;;;;5031591;28;20729;-75
2023/12/09 02:15:42;;;;;;;19.03;9.77;;;7.30;85.90;;;;;;5043611;28;20426;-75
2023/12/09 02:18:08;;;;;;;25.00;10.57;;;7.20;85.90;;;;;;5036059;28;20446;-74
2023/12/09 02:20:34;;;;;;;18.43;10.40;;;7.20;86.20;;;;;;5027606;28;20955;-74
2023/12/09 02:23:12;;;;;;;19.20;8.60;;;7.30;86.20;;;;;;5031664;28;20419;-76
2023/12/09 02:25:39;;;;;;;16.80;9.00;;;7.40;86.00;;;;;;5030491;28;20209;-73
2023/12/09 02:28:23;;;;;;;18.87;7.90;;;7.40;86.20;;;;;;5033372;28;20907;-74
2023/12/09 02:30:55;;;;;;;16.97;8.57;;;7.40;85.90;;;;;;5027837;28;20470;-74
2023/12/09 02:33:22;;;;;;;17.37;7.80;;;7.40;85.70;;;;;;5035747;28;20466;-74
2023/12/09 02:35:50;;;;;;;16.60;8.37;;;7.40;85.70;;;;;;5040517;28;20939;-74
2023/12/09 02:38:17;;;;;;;20.17;8.20;;;7.40;85.70;;;;;;5035155;28;20412;-74
2023/12/09 02:40:44;;;;;;;18.00;8.97;;;7.40;85.90;;;;;;5029849;28;20460;-75
2023/12/09 02:43:11;;;;;;;13.60;7.70;;;7.50;85.90;;;;;;5032739;28;20448;-74
2023/12/09 02:45:37;;;;;;;14.60;7.43;;;7.50;85.60;;;;;;5031592;28;20472;-74
2023/12/09 02:48:03;;;;;;;13.63;7.70;;;7.50;85.60;;;;;;5032169;28;20430;-74
2023/12/09 02:50:30;;;;;;;19.10;8.77;;;7.50;85.50;;;;;;5020401;28;20213;-74
2023/12/09 02:52:55;;;;;;;14.90;7.53;;;7.50;85.50;;;;;;5033296;28;20843;-74
2023/12/09 02:55:21;;;;;;;15.20;7.93;;;7.50;85.50;;;;;;5033450;28;20416;-74
2023/12/09 02:57:47;;;;;;;14.53;7.87;;;7.40;85.50;;;;;;5030101;28;20185;-74
2023/12/09 03:00:13;;;;;;;18.17;8.50;;;7.40;85.50;;;;;;5022219;28;20237;-74
2023/12/09 03:02:38;;;;;;;16.63;8.63;;;7.40;85.60;;;;;;5028817;28;20245;-74
2023/12/09 03:05:04;;;;;;;14.27;8.87;;;7.40;85.60;;;;;;5027030;28;20559;-75
2023/12/09 03:07:30;;;;;;;16.60;8.43;;;7.30;85.70;;;;;;5030128;28;20213;-74
2023/12/09 03:09:55;;;;;;;17.30;8.43;;;7.30;85.90;;;;;;5031951;28;20218;-75
2023/12/09 03:12:21;;;;;;;19.70;8.63;;;7.30;86.20;;;;;;5030134;28;20242;-75
2023/12/09 03:14:47;;;;;;;15.87;8.80;;;7.40;86.30;;;;;;5029542;28;20185;-74
2023/12/09 03:17:12;;;;;;;15.80;8.90;;;7.50;86.30;;;;;;5030305;28;20187;-73
2023/12/09 03:19:38;;;;;;;13.10;8.13;;;7.50;86.30;;;;;;5027055;28;20324;-74
2023/12/09 03:22:04;;;;;;;15.43;8.80;;;7.50;86.30;;;;;;5039236;28;20216;-73
2023/12/09 03:24:29;;;;;;;14.07;8.70;;;7.50;86.20;;;;;;5030228;28;20220;-74
2023/12/09 03:26:55;;;;;;;21.13;9.50;;;7.40;86.00;;;;;;5031706;28;20188;-74
2023/12/09 03:29:21;;;;;;;17.33;8.80;;;7.40;86.00;;;;;;5028801;28;20184;-74
2023/12/09 03:31:48;;;;;;;19.03;9.20;;;7.50;86.20;;;;;;5029368;28;20517;-73
2023/12/09 03:34:14;;;;;;;15.63;8.73;;;7.50;86.00;;;;;;5032580;28;20423;-76
2023/12/09 03:36:40;;;;;;;19.87;9.37;;;7.60;85.90;;;;;;5037591;28;20499;-75
2023/12/09 03:39:06;;;;;;;12.10;8.50;;;7.40;85.60;;;;;;5040878;28;20455;-77
2023/12/09 03:41:32;;;;;;;13.63;6.60;;;7.50;85.70;;;;;;5030987;28;20705;-75
2023/12/09 03:43:58;;;;;;;16.23;8.10;;;7.50;85.60;;;;;;5032182;28;20471;-74
2023/12/09 03:46:24;;;;;;;19.80;8.70;;;7.40;85.20;;;;;;5040218;28;20834;-73
2023/12/09 03:48:49;;;;;;;13.97;8.47;;;7.30;85.20;;;;;;5041048;28;20197;-72
2023/12/09 03:51:15;;;;;;;13.57;7.63;;;7.30;85.60;;;;;;5046869;28;20251;-74
2023/12/09 03:53:41;;;;;;;16.50;8.47;;;7.20;85.70;;;;;;5037865;28;20676;-74
2023/12/09 03:56:08;;;;;;;12.67;7.60;;;7.10;86.00;;;;;;5038702;28;20642;-73
2023/12/09 03:58:34;;;;;;;16.27;8.73;;;7.10;86.20;;;;;;5033551;28;20443;-74
2023/12/09 04:01:00;;;;;;;15.10;8.20;;;7.00;86.30;;;;;;5028156;28;20463;-73
2023/12/09 04:03:27;;;;;;;13.93;6.83;;;7.00;86.50;;;;;;5028756;28;20197;-73
2023/12/09 04:05:53;;;;;;;16.77;7.30;;;7.00;86.60;;;;;;5030838;28;20435;-74
2023/12/09 04:08:19;;;;;;;13.17;6.20;;;7.00;86.50;;;;;;5031806;28;20431;-73
2023/12/09 04:10:44;;;;;;;12.17;6.70;;;7.00;86.30;;;;;;5031400;28;20460;-72
2023/12/09 04:13:10;;;;;;;13.63;6.00;;;7.00;86.30;;;;;;5030752;28;20181;-74
2023/12/09 04:15:38;;;;;;;9.77;7.00;;;6.90;86.30;;;;;;5033579;28;20244;-76
2023/12/09 04:18:07;;;;;;;13.77;6.73;;;6.80;86.50;;;;;;5046838;28;20174;-73
2023/12/09 04:20:33;;;;;;;12.57;6.97;;;6.80;86.60;;;;;;5027481;28;20455;-73
2023/12/09 04:22:58;;;;;;;11.73;6.47;;;6.70;86.80;;;;;;5034069;28;20685;-73
2023/12/09 04:25:25;;;;;;;14.30;6.70;;;6.70;86.90;;;;;;5049304;28;20281;-73
2023/12/09 04:27:56;;;;;;;10.63;6.10;;;6.70;86.90;;;;;;5038382;28;20186;-73
2023/12/09 04:30:22;;;;;;;13.13;6.20;;;6.70;86.90;;;;;;5048033;28;20473;-73
2023/12/09 04:32:48;;;;;;;12.60;6.60;;;6.60;87.00;;;;;;5037746;28;20499;-74
2023/12/09 04:35:14;;;;;;;12.90;6.67;;;6.60;87.00;;;;;;5039770;28;20181;-74
2023/12/09 04:37:39;;;;;;;10.53;6.30;;;6.50;87.10;;;;;;5040483;28;20430;-73
2023/12/09 04:40:09;;;;;;;10.97;6.60;;;6.60;87.30;;;;;;5024986;28;20467;-75
2023/12/09 04:42:35;;;;;;;17.10;6.50;;;6.50;87.10;;;;;;5037234;28;20204;-73
2023/12/09 04:45:01;;;;;;;15.63;6.17;;;6.60;87.30;;;;;;5043818;28;20507;-74
2023/12/09 04:47:26;;;;;;;13.30;6.27;;;6.60;87.30;;;;;;5037775;28;20252;-76
2023/12/09 04:49:52;;;;;;;13.10;6.70;;;6.60;87.10;;;;;;5042232;28;20217;-72
2023/12/09 04:52:17;;;;;;;11.60;6.60;;;6.50;87.10;;;;;;5044231;28;20260;-73
2023/12/09 04:54:43;;;;;;;10.07;5.13;;;6.60;87.10;;;;;;5038154;28;20190;-75
2023/12/09 04:57:09;;;;;;;13.93;6.10;;;6.70;87.10;;;;;;5035541;28;20193;-73
2023/12/09 04:59:34;;;;;;;16.03;6.03;;;6.70;86.90;;;;;;5035695;28;20220;-74
2023/12/09 05:02:00;;;;;;;15.40;5.93;;;6.60;86.90;;;;;;5036785;28;20181;-75
2023/12/09 05:04:27;;;;;;;11.33;6.20;;;6.60;87.00;;;;;;5031706;28;21038;-73
2023/12/09 05:06:52;;;;;;;11.40;5.30;;;6.70;87.00;;;;;;5027298;28;20685;-73
2023/12/09 05:09:18;;;;;;;10.87;5.50;;;6.80;87.00;;;;;;5044358;28;20456;-74
2023/12/09 05:11:43;;;;;;;9.90;5.13;;;6.80;86.90;;;;;;5034223;28;20181;-74
2023/12/09 05:14:09;;;;;;;9.67;4.77;;;6.90;86.60;;;;;;5031895;28;20185;-73
2023/12/09 05:16:35;;;;;;;10.83;5.60;;;6.90;86.50;;;;;;5033763;28;20185;-74
2023/12/09 05:19:01;;;;;;;12.77;5.43;;;6.90;86.20;;;;;;5029258;28;20185;-75
2023/12/09 05:21:27;;;;;;;14.53;5.23;;;6.90;86.20;;;;;;5025364;28;20471;-72
2023/12/09 05:23:53;;;;;;;10.33;5.70;;;6.90;86.20;;;;;;5037009;28;20287;-73
2023/12/09 05:26:31;;;;;;;10.10;5.37;;;6.90;86.20;;;;;;5034487;28;20478;-73
2023/12/09 05:28:57;;;;;;;11.10;5.53;;;6.80;86.20;;;;;;5033137;28;20177;-73
2023/12/09 05:31:23;;;;;;;14.73;6.57;;;6.80;86.30;;;;;;5026413;28;20464;-72
2023/12/09 05:33:50;;;;;;;11.60;5.70;;;6.80;86.50;;;;;;5028954;28;20776;-74
2023/12/09 05:36:15;;;;;;;13.83;5.37;;;6.70;86.50;;;;;;5035427;28;20409;-74
2023/12/09 05:38:42;;;;;;;9.83;4.87;;;6.70;86.60;;;;;;5034890;28;20427;-74
2023/12/09 05:41:08;;;;;;;13.93;6.30;;;6.70;86.80;;;;;;5028427;28;20266;-75
2023/12/09 05:43:37;;;;;;;14.37;6.30;;;6.70;86.80;;;;;;5034133;28;20438;-73
2023/12/09 05:46:04;;;;;;;14.40;5.77;;;6.80;86.80;;;;;;5035506;28;20420;-75
2023/12/09 05:48:31;;;;;;;9.50;4.87;;;6.70;86.80;;;;;;5033198;28;20432;-76
2023/12/09 05:50:57;;;;;;;11.17;5.50;;;6.80;86.90;;;;;;5033273;28;21034;-74
2023/12/09 05:53:23;;;;;;;9.87;5.90;;;6.90;86.90;;;;;;5041735;28;20502;-75
2023/12/09 05:55:48;;;;;;;8.53;5.13;;;6.90;86.60;;;;;;5037707;28;20189;-75
2023/12/09 05:58:14;;;;;;;10.67;4.60;;;7.00;86.20;;;;;;5034453;28;20677;-75
2023/12/09 06:00:39;;;;;;;12.00;5.43;;;7.00;86.00;;;;;;5029063;28;20205;-75
2023/12/09 06:03:05;;;;;;;11.00;4.67;;;7.00;85.90;;;;;;5033067;28;20213;-74
2023/12/09 06:05:30;;;;;;;11.53;4.30;;;7.00;86.00;;;;;;5030667;28;20217;-75
2023/12/09 06:07:56;;;;;;;7.27;4.20;;;7.10;85.70;;;;;;5034943;28;20749;-75
2023/12/09 06:10:22;;;;;;;10.03;4.67;;;7.10;85.60;;;;;;5030313;28;20212;-74
2023/12/09 06:12:47;;;;;;;11.20;5.40;;;7.10;85.50;;;;;;5034068;28;20670;-73
2023/12/09 06:15:13;;;;;;;16.03;4.50;;;7.10;85.50;;;;;;5033359;28;20224;-75
2023/12/09 06:17:38;;;;;;;12.00;4.70;;;7.20;85.30;;;;;;5034096;28;20622;-73
2023/12/09 06:20:07;;;;;;;12.30;4.60;;;7.20;85.20;;;;;;5029992;28;20682;-73
2023/12/09 06:22:32;;;;;;;12.53;4.60;;;7.10;84.70;;;;;;5030990;28;20190;-74
2023/12/09 06:24:58;;;;;;;9.53;4.80;;;7.00;85.20;;;;;;5028811;28;20471;-75
2023/12/09 06:27:25;;;;;;;10.17;4.73;;;7.00;85.20;;;;;;5035652;28;20193;-73
2023/12/09 06:29:51;;;;;;;8.27;4.17;;;6.90;85.30;;;;;;5034804;28;20229;-73
2023/12/09 06:32:16;;;;;;;8.90;3.73;;;6.90;85.50;;;;;;5040801;28;20428;-72
2023/12/09 06:34:42;;;;;;;8.23;5.13;;;7.00;85.50;;;;;;5039290;28;20192;-75
2023/12/09 06:37:08;;;;;;;11.90;3.93;;;7.10;85.30;;;;;;5041803;28;20666;-76
2023/12/09 06:39:33;;;;;;;6.80;3.57;;;7.20;85.20;;;;;;5038960;28;20292;-74
2023/12/09 06:42:00;;;;;;;5.97;3.00;;;7.20;84.60;;;;;;5037136;28;20200;-74
2023/12/09 06:44:26;;;;;;;6.03;3.10;;;7.30;84.10;;;;;;5042482;28;20937;-74
2023/12/09 06:46:51;;;;;;;5.17;3.67;;;7.40;83.80;;;;;;5038663;28;20444;-75
2023/12/09 06:49:19;;;;;;;5.57;2.93;;;7.40;83.70;;;;;;5041776;28;20420;-74
2023/12/09 06:51:45;;;;;;;6.47;3.13;;;7.50;83.80;;;;;;5035614;28;20258;-75
2023/12/09 06:54:11;;;;;;;7.30;3.73;;;7.50;83.60;;;;;;5044711;28;20489;-77
2023/12/09 06:56:37;;;;;;;7.23;3.20;;;7.50;83.40;;;;;;5050328;28;20455;-75
2023/12/09 06:59:03;;;;;;;13.63;2.97;;;7.60;83.10;;;;;;5038746;28;20806;-73
2023/12/09 07:01:29;;;;;;;5.70;2.30;;;7.60;82.70;;;;;;5031402;28;20492;-72
2023/12/09 07:03:55;;;;;;;6.27;2.67;;;7.60;82.50;;;;;;5030194;28;20478;-74
2023/12/09 07:06:23;;;;;;;9.87;3.50;;;7.60;82.40;;;;;;5041341;28;20201;-74
2023/12/09 07:08:49;;;;;;;7.23;2.67;;;7.60;81.90;;;;;;5034070;28;20420;-75
2023/12/09 07:11:18;;;;;;;9.80;3.47;;;7.50;81.90;;;;;;5030635;28;20518;-74
2023/12/09 07:13:44;;;;;;;7.87;3.30;;;7.40;82.10;;;;;;5039021;28;20816;-74
2023/12/09 07:16:10;;;;;;;5.03;2.90;;;7.50;82.50;;;;;;5029049;28;20433;-74
2023/12/09 07:18:40;;;;;;;7.53;4.30;;;7.50;82.20;;;;;;5034098;28;20459;-73
2023/12/09 07:21:06;;;;;;;5.90;2.60;;;7.40;82.10;;;;;;5026129;28;20467;-73
2023/12/09 07:23:31;;;;;;;6.77;3.20;;;7.40;82.20;;;;;;5030233;28;20515;-74
2023/12/09 07:25:57;;;;;;;6.17;2.80;;;7.40;82.10;;;;;;5031248;28;20231;-73
2023/12/09 07:28:23;;;;;;;5.63;2.90;;;7.40;82.20;;;;;;5038559;28;20185;-74
2023/12/09 07:30:48;;;;;;;8.80;3.43;;;7.40;82.10;;;;;;5035946;28;20201;-74
2023/12/09 07:33:14;;;;;;;8.57;3.33;;;7.50;81.90;;;;;;5036640;28;20480;-74
2023/12/09 07:35:39;;;;;;;3.80;2.77;;;7.40;81.90;;;;;;5035948;28;20193;-73
2023/12/09 07:38:06;;;;;;;7.00;3.10;;;7.40;81.70;;;;;;5030586;28;20209;-73
2023/12/09 07:40:32;;;;;;;9.30;3.07;;;7.30;81.70;;;;;;5028331;28;20205;-73
2023/12/09 07:42:57;;;;;;;6.80;2.90;;;7.30;81.90;;;;;;4992520;28;1125718;-74
2023/12/09 07:45:23;;;;;;;7.53;2.97;;;7.30;82.10;;;;;;5030062;28;20212;-74
2023/12/09 07:47:48;;;;;;;3.73;2.50;;;7.30;82.40;;;;;;5030266;28;20388;-74
2023/12/09 07:50:14;;;;;;;5.07;2.90;;;7.40;82.50;;;;;;5024768;28;20634;-74
2023/12/09 07:52:40;;;;;;;14.43;3.77;;;7.50;82.50;;;;;;5034210;28;20280;-75
2023/12/09 07:55:07;;;;;;;8.53;3.67;;;7.60;82.10;;;;;;5037661;28;20181;-74
2023/12/09 07:57:32;;;;;;;8.73;3.30;;;7.70;81.80;;;;;;5036487;28;20235;-75
2023/12/09 07:59:59;;;;;;;7.53;3.23;;;7.70;81.80;;;;;;5030907;28;20464;-75
2023/12/09 08:02:25;;;;;;;9.03;3.67;;;7.80;81.50;;;;;;5030658;28;20420;-74
2023/12/09 08:04:51;;;;;;;7.00;3.57;;;7.70;81.40;;;;;;5034944;28;20467;-75
2023/12/09 08:07:16;;;;;;;8.60;2.70;;;7.80;81.50;;;;;;5035597;28;20185;-75
2023/12/09 08:09:42;;;;;;;7.03;2.90;;;7.80;81.10;;;;;;5030394;28;20685;-76
2023/12/09 08:12:07;;;;;;;5.70;2.77;;;7.70;80.80;;;;;;5035347;28;20189;-75
2023/12/09 08:14:33;;;;;;;3.87;2.70;;;7.70;81.10;;;;;;5038420;28;20181;-75
2023/12/09 08:16:59;;;;;;;7.63;3.20;;;7.80;80.90;;;;;;5038269;28;20268;-75
2023/12/09 08:19:25;;;;;;;10.87;2.83;;;7.90;80.50;;;;;;5034645;28;20443;-76
2023/12/09 08:21:50;;;;;;;4.07;2.70;;;7.80;80.20;;;;;;5033884;28;20179;-74
2023/12/09 08:24:16;;;;;;;6.33;2.80;;;7.80;80.30;;;;;;5037820;28;20209;-76
2023/12/09 08:26:42;;;;;;;5.37;2.77;;;7.80;80.50;;;;;;5036724;28;20661;-75
2023/12/09 08:29:14;;;;;;;5.30;2.90;;;7.90;80.50;;;;;;5036870;28;20443;-75
2023/12/09 08:31:46;;;;;;;6.77;3.50;;;7.90;80.80;;;;;;5032545;28;20197;-75
2023/12/09 08:34:12;;;;;;;9.10;3.50;;;7.80;80.30;;;;;;5037316;28;20511;-75
2023/12/09 08:36:38;;;;;;;9.30;3.13;;;7.70;80.50;;;;;;5037890;28;20427;-75
2023/12/09 08:39:04;;;;;;;8.23;3.37;;;7.70;80.80;;;;;;5033900;28;20939;-74
2023/12/09 08:41:30;;;;;;;5.97;3.10;;;7.70;80.80;;;;;;5034097;28;20246;-74
2023/12/09 08:43:55;;;;;;;7.77;3.83;;;7.60;80.80;;;;;;5034127;28;20197;-74
2023/12/09 08:46:21;;;;;;;7.67;4.57;;;7.50;81.10;;;;;;5031762;28;20192;-75
2023/12/09 08:48:47;;;;;;;11.43;3.57;;;7.60;81.40;;;;;;5037568;28;20182;-72
2023/12/09 08:51:12;;;;;;;6.03;3.30;;;7.80;81.40;;;;;;5035335;28;20673;-75
2023/12/09 08:53:38;;;;;;;5.97;3.57;;;8.00;80.90;;;;;;5032270;28;20257;-74
2023/12/09 08:56:04;;;;;;;8.70;3.70;;;8.00;80.60;;;;;;5041506;28;20246;-75
2023/12/09 08:58:29;;;;;;;7.03;3.40;;;8.10;80.30;;;;;;5038112;28;20192;-76
2023/12/09 09:00:55;;;;;;;5.53;3.60;;;8.10;80.20;;;;;;5034096;28;20967;-73
2023/12/09 09:03:23;;;;;;;5.20;3.33;;;8.30;79.70;;;;;;5039434;28;20245;-77
2023/12/09 09:05:54;;;;;;;7.93;3.87;;;8.30;79.70;;;;;;5047186;28;20467;-76
2023/12/09 09:08:22;;;;;;;6.27;2.87;;;8.40;79.60;;;;;;5040380;28;20431;-75
2023/12/09 09:10:49;;;;;;;5.73;2.63;;;8.50;78.40;;;;;;5030575;28;20456;-75
2023/12/09 09:13:15;;;;;;;6.60;2.80;;;8.30;77.60;;;;;;5042448;28;20654;-74
2023/12/09 09:15:40;;;;;;;6.67;2.93;;;8.10;78.00;;;;;;5060028;28;20444;-75
2023/12/09 09:18:06;;;;;;;6.30;3.30;;;8.10;78.90;;;;;;5044157;28;20428;-75
2023/12/09 09:20:32;;;;;;;8.03;2.90;;;8.20;79.50;;;;;;5042462;28;20201;-77
2023/12/09 09:22:59;;;;;;;4.23;2.27;;;8.40;79.50;;;;;;5048532;28;20424;-75
2023/12/09 09:25:30;;;;;;;3.43;2.47;;;8.40;79.00;;;;;;5041550;28;20473;-75
2023/12/09 09:27:56;;;;;;;5.50;2.50;;;8.40;78.70;;;;;;5042309;28;20440;-76
2023/12/09 09:30:25;;;;;;;5.93;2.80;;;8.40;78.90;;;;;;5034145;28;20796;-73
2023/12/09 09:32:51;;;;;;;4.53;2.33;;;8.50;79.00;;;;;;5043093;28;20208;-75
2023/12/09 09:35:17;;;;;;;4.23;2.30;;;8.60;79.30;;;;;;5044702;28;20577;-75
2023/12/09 09:37:46;;;;;;;5.17;2.70;;;8.60;78.90;;;;;;5039573;28;20177;-74
2023/12/09 09:40:14;;;;;;;5.93;2.97;;;8.60;78.60;;;;;;5035261;28;20216;-74
2023/12/09 09:42:48;;;;;;;6.30;2.87;;;8.50;78.30;;;;;;5039769;28;20440;-74
2023/12/09 09:45:25;;;;;;;9.87;3.03;;;8.30;78.70;;;;;;5044076;28;20455;-75
2023/12/09 09:47:55;;;;;;;3.87;2.30;;;8.50;78.90;;;;;;5045338;28;20424;-75
2023/12/09 09:50:26;;;;;;;4.37;2.70;;;8.70;78.10;;;;;;5043009;28;20466;-73
2023/12/09 09:52:53;;;;;;;3.60;2.10;;;8.80;78.00;;;;;;5050506;28;20436;-77
2023/12/09 09:55:26;;;;;;;4.33;2.20;;;8.80;76.70;;;;;;5049700;28;20428;-76
2023/12/09 09:57:53;;;;;;;7.23;2.37;;;8.90;76.70;;;;;;5037725;28;20418;-74
2023/12/09 10:00:21;;;;;;;9.13;2.73;;;8.80;75.80;;;;;;5044638;28;20538;-75
2023/12/09 10:02:49;;;;;;;7.00;2.37;;;8.80;75.90;;;;;;5034327;28;20425;-77
2023/12/09 10:05:17;;;;;;;6.17;2.90;;;8.80;76.70;;;;;;5039839;28;20479;-75
2023/12/09 10:07:46;;;;;;;5.67;2.57;;;8.90;76.50;;;;;;5041362;28;20439;-76
2023/12/09 10:10:29;;;;;;;6.30;2.80;;;8.90;75.90;;;;;;5040608;28;20494;-76
2023/12/09 10:12:59;;;;;;;4.80;3.00;;;8.90;75.50;;;;;;5042049;28;20412;-74
2023/12/09 10:15:24;;;;;;;4.30;2.50;;;8.90;75.90;;;;;;5040925;28;20858;-75
2023/12/09 10:17:50;;;;;;;5.50;3.00;;;8.90;76.10;;;;;;5038571;28;20201;-76
2023/12/09 10:20:16;;;;;;;8.40;3.63;;;8.90;76.10;;;;;;5033365;28;20277;-75
2023/12/09 10:22:41;;;;;;;7.77;3.40;;;8.80;75.70;;;;;;5032624;28;20182;-75
2023/12/09 10:25:07;;;;;;;5.30;3.20;;;8.70;75.90;;;;;;5033058;28;20211;-75
2023/12/09 10:27:35;;;;;;;5.30;3.20;;;8.60;76.10;;;;;;5038343;28;20268;-76
2023/12/09 10:30:05;;;;;;;4.63;3.00;;;8.60;76.50;;;;;;5034879;28;20194;-75
2023/12/09 10:32:33;;;;;;;6.23;3.10;;;8.60;76.70;;;;;;5034149;28;20812;-74
2023/12/09 10:34:59;;;;;;;7.00;3.07;;;8.70;76.80;;;;;;5032993;28;20432;-75
2023/12/09 10:37:26;;;;;;;8.93;3.40;;;8.70;77.10;;;;;;5040590;28;20416;-75
2023/12/09 10:39:52;;;;;;;9.40;3.30;;;8.80;76.80;;;;;;5027471;28;20208;-74
2023/12/09 10:42:18;;;;;;;7.97;3.30;;;8.90;77.00;;;;;;5035847;28;20522;-74
2023/12/09 10:44:43;;;;;;;4.63;3.10;;;9.00;77.10;;;;;;5033596;28;20213;-73
2023/12/09 10:47:09;;;;;;;3.60;2.30;;;9.20;75.80;;;;;;5035014;28;20213;-75
2023/12/09 10:49:35;;;;;;;6.10;2.70;;;9.30;75.10;;;;;;5031827;28;20602;-74
2023/12/09 10:52:01;;;;;;;6.10;2.50;;;9.30;75.20;;;;;;5037343;28;20177;-76
2023/12/09 10:54:26;;;;;;;11.93;3.03;;;9.40;74.80;;;;;;5037540;28;20193;-75
2023/12/09 10:56:52;;;;;;;4.23;3.03;;;9.40;74.60;;;;;;5037684;28;20428;-74
2023/12/09 10:59:19;;;;;;;6.60;2.90;;;9.40;74.80;;;;;;5037248;28;20188;-75
2023/12/09 11:01:48;;;;;;;4.90;2.87;;;9.50;74.90;;;;;;5035806;28;20177;-75
2023/12/09 11:04:14;;;;;;;5.00;2.63;;;9.40;74.20;;;;;;5035952;28;20470;-74
2023/12/09 11:06:42;;;;;;;3.63;2.70;;;9.30;74.60;;;;;;5033713;28;20424;-74
2023/12/09 11:09:08;;;;;;;7.30;3.17;;;9.30;74.90;;;;;;5031536;28;20439;-74
2023/12/09 11:11:37;;;;;;;4.97;2.70;;;9.20;74.90;;;;;;5033349;28;20460;-74
2023/12/09 11:14:08;;;;;;;4.87;2.80;;;9.30;75.50;;;;;;5030889;28;20425;-75
2023/12/09 11:16:34;;;;;;;3.67;2.50;;;9.30;75.10;;;;;;5028599;28;20428;-75
2023/12/09 11:19:00;;;;;;;3.40;2.80;;;9.30;75.10;;;;;;5038442;28;20414;-76
2023/12/09 11:21:30;;;;;;;6.87;3.73;;;9.30;75.10;;;;;;5033338;28;20214;-74
2023/12/09 11:23:57;;;;;;;5.53;3.07;;;9.30;75.20;;;;;;5028678;28;20444;-76
2023/12/09 11:26:29;;;;;;;5.03;2.70;;;9.30;75.10;;;;;;5035839;28;20420;-74
2023/12/09 11:29:04;;;;;;;9.80;3.73;;;9.20;75.20;;;;;;5043799;28;20481;-75
2023/12/09 11:31:40;;;;;;;4.20;2.80;;;9.00;75.90;;;;;;5033064;28;20475;-74
2023/12/09 11:34:07;;;;;;;10.00;2.97;;;8.80;76.80;;;;;;5048346;22;20503;-72
2023/12/09 11:36:35;;;;;;;9.33;4.00;;;8.70;77.30;;;;;;5040246;28;20511;-74
2023/12/09 11:39:06;;;;;;;9.47;3.33;;;8.70;77.60;;;;;;5052565;28;20430;-73
2023/12/09 11:41:36;;;;;;;5.67;3.60;;;8.80;78.00;;;;;;5041337;28;20843;-73
2023/12/09 11:44:02;;;;;;;6.23;4.10;;;8.70;77.80;;;;;;5049544;28;20427;-74
2023/12/09 11:46:32;;;;;;;4.43;2.53;;;8.70;77.40;;;;;;5045458;28;20492;-72
2023/12/09 11:48:59;;;;;;;3.87;3.03;;;8.70;77.60;;;;;;5049944;28;20931;-73
2023/12/09 11:51:25;;;;;;;4.73;3.13;;;8.70;78.00;;;;;;5042639;28;20475;-71
2023/12/09 11:53:59;;;;;;;7.83;3.00;;;8.70;78.00;;;;;;5047197;28;20418;-73
2023/12/09 11:56:26;;;;;;;6.43;2.93;;;8.80;78.00;;;;;;5047644;28;20431;-73
2023/12/09 11:58:52;;;;;;;5.53;3.13;;;8.90;77.70;;;;;;5049568;28;20514;-72
2023/12/09 12:01:18;;;;;;;8.07;3.30;;;9.00;77.30;;;;;;5040036;28;20606;-72
2023/12/09 12:03:47;;;;;;;8.13;3.43;;;9.10;77.00;;;;;;5041763;28;20419;-71
2023/12/09 12:06:14;;;;;;;6.10;3.47;;;9.20;77.00;;;;;;5047312;28;20434;-72
2023/12/09 12:08:40;;;;;;;7.20;3.80;;;9.30;75.90;;;;;;5049040;28;20575;-73
2023/12/09 12:11:06;;;;;;;5.03;3.53;;;9.30;75.40;;;;;;5045250;28;20555;-71
2023/12/09 12:13:32;;;;;;;4.90;3.57;;;9.10;75.50;;;;;;5048007;28;20195;-73
2023/12/09 12:15:58;;;;;;;9.73;3.77;;;9.00;75.80;;;;;;5046849;28;20185;-72
2023/12/09 12:18:24;;;;;;;7.53;4.03;;;8.90;76.20;;;;;;5051635;28;20426;-72
2023/12/09 12:20:50;;;;;;;7.13;3.50;;;8.90;76.50;;;;;;5046949;28;20561;-74
2023/12/09 12:23:16;;;;;;;6.30;3.40;;;8.90;76.70;;;;;;5044466;28;20398;-71
2023/12/09 12:25:41;;;;;;;6.40;3.20;;;8.80;76.70;;;;;;5048072;28;20216;-72
2023/12/09 12:28:07;;;;;;;6.53;3.77;;;8.80;76.80;;;;;;5050590;28;20443;-73
2023/12/09 12:30:32;;;;;;;6.53;3.37;;;8.90;77.00;;;;;;5043124;28;20209;-72
2023/12/09 12:32:58;;;;;;;6.73;3.13;;;8.90;77.10;;;;;;5040634;28;20213;-73
2023/12/09 12:35:25;;;;;;;5.53;3.20;;;9.00;77.10;;;;;;5048676;28;20220;-72
2023/12/09 12:37:51;;;;;;;6.47;2.87;;;9.00;76.80;;;;;;5048261;28;20191;-72
2023/12/09 12:40:18;;;;;;;4.27;3.00;;;9.20;76.80;;;;;;5043089;28;20542;-73
2023/12/09 12:42:44;;;;;;;5.80;3.10;;;9.30;76.50;;;;;;5043105;28;20203;-75
2023/12/09 12:45:19;;;;;;;3.77;2.90;;;9.40;76.40;;;;;;5041968;28;20995;-72
2023/12/09 12:47:46;;;;;;;4.23;2.73;;;9.50;75.20;;;;;;5038848;28;20915;-72